createdAt,value
2023-02-18T00:00:00.711Z,1.1
2023-02-18T00:01:00.688Z,1.1
2023-02-18T00:02:00.605Z,1.1
2023-02-18T00:03:00.698Z,1.1
2023-02-18T00:04:00.558Z,1.1
2023-02-18T00:05:00.582Z,1.1
2023-02-18T00:06:00.555Z,1.1
2023-02-18T00:07:00.550Z,1.1
2023-02-18T00:08:00.569Z,1.1
2023-02-18T00:09:00.579Z,1.1
2023-02-18T00:10:00.594Z,1.1
2023-02-18T00:11:00.557Z,1.1
2023-02-18T00:12:00.570Z,1.1
2023-02-18T00:13:00.560Z,1.1
2023-02-18T00:14:00.579Z,1.1
2023-02-18T00:15:00.579Z,1.1
2023-02-18T00:16:00.609Z,1.1
2023-02-18T00:17:00.575Z,1.1
2023-02-18T00:18:00.589Z,1.1
2023-02-18T00:19:00.597Z,1.1
2023-02-18T00:20:00.600Z,1.1
2023-02-18T00:21:00.561Z,1.1
2023-02-18T00:22:00.569Z,1.1
2023-02-18T00:23:00.610Z,1.1
2023-02-18T00:24:00.621Z,1.1
2023-02-18T00:25:00.589Z,1.1
2023-02-18T00:26:00.575Z,1.1
2023-02-18T00:27:00.571Z,1.1
2023-02-18T00:28:00.575Z,1.1
2023-02-18T00:29:00.590Z,1.1
2023-02-18T00:30:00.749Z,1.1
2023-02-18T00:31:00.641Z,1.1
2023-02-18T00:32:00.701Z,1.1
2023-02-18T00:33:00.594Z,1.1
2023-02-18T00:34:00.581Z,1.1
2023-02-18T00:35:00.596Z,1.1
2023-02-18T00:36:00.589Z,1.1
2023-02-18T00:37:00.596Z,1.1
2023-02-18T00:38:00.597Z,1.1
2023-02-18T00:39:00.585Z,1.1
2023-02-18T00:40:00.625Z,1.1
2023-02-18T00:41:00.591Z,1.1
2023-02-18T00:42:00.605Z,1.1
2023-02-18T00:43:00.594Z,1.1
2023-02-18T00:44:00.606Z,1.1
2023-02-18T00:45:00.633Z,1.1
2023-02-18T00:46:00.662Z,1.1
2023-02-18T00:47:00.596Z,1.1
2023-02-18T00:48:00.607Z,1.1
2023-02-18T00:49:00.593Z,1.1
2023-02-18T00:50:00.614Z,1.1
2023-02-18T00:51:00.595Z,1.1
2023-02-18T00:52:00.615Z,1.1
2023-02-18T00:53:00.612Z,1.1
2023-02-18T00:54:00.598Z,1.1
2023-02-18T00:55:00.625Z,1.1
2023-02-18T00:56:00.605Z,1.1
2023-02-18T00:57:00.602Z,1.1
2023-02-18T00:58:00.632Z,1.1
2023-02-18T00:59:00.609Z,1.1
2023-02-18T01:00:00.651Z,1.1
2023-02-18T01:01:00.607Z,1.1
2023-02-18T01:02:00.615Z,1.1
2023-02-18T01:03:00.630Z,1.1
2023-02-18T01:04:00.618Z,1.1
2023-02-18T01:05:00.661Z,1.1
2023-02-18T01:06:00.614Z,1.1
2023-02-18T01:07:00.616Z,1.1
2023-02-18T01:08:00.644Z,1.1
2023-02-18T01:09:00.632Z,1.1
2023-02-18T01:10:00.638Z,1.1
2023-02-18T01:11:00.626Z,1.1
2023-02-18T01:12:00.621Z,1.1
2023-02-18T01:13:00.647Z,1.1
2023-02-18T01:14:00.631Z,1.1
2023-02-18T01:15:00.664Z,1.1
2023-02-18T01:16:00.682Z,1.1
2023-02-18T01:17:00.643Z,1.1
2023-02-18T01:18:00.653Z,1.1
2023-02-18T01:19:00.662Z,1.1
2023-02-18T01:20:00.655Z,1.1
2023-02-18T01:21:00.642Z,1.1
2023-02-18T01:22:00.649Z,1.1
2023-02-18T01:23:00.650Z,1.1
2023-02-18T01:24:00.636Z,1.1
2023-02-18T01:25:00.646Z,1.1
2023-02-18T01:26:00.641Z,1.1
2023-02-18T01:27:00.658Z,1.1
2023-02-18T01:28:00.658Z,1.1
2023-02-18T01:29:00.645Z,1.1
2023-02-18T01:30:00.744Z,1.1
2023-02-18T01:31:00.688Z,1.1
2023-02-18T01:32:00.758Z,1.1
2023-02-18T01:33:00.664Z,1.1
2023-02-18T01:34:00.651Z,1.1
2023-02-18T01:35:00.651Z,1.1
2023-02-18T01:36:00.646Z,1.1
2023-02-18T01:37:00.669Z,1.1
2023-02-18T01:38:00.682Z,1.1
2023-02-18T01:39:00.669Z,1.1
2023-02-18T01:40:00.665Z,1.1
2023-02-18T01:41:00.666Z,1.1
2023-02-18T01:42:00.673Z,1.1
2023-02-18T01:43:00.657Z,1.1
2023-02-18T01:44:00.645Z,1.1
2023-02-18T01:45:00.649Z,1.1
2023-02-18T01:46:00.670Z,1.1
2023-02-18T01:47:00.674Z,1.1
2023-02-18T01:48:00.670Z,1.1
2023-02-18T01:49:00.694Z,1.1
2023-02-18T01:50:00.679Z,1.1
2023-02-18T01:51:00.659Z,1.1
2023-02-18T01:52:00.680Z,1.1
2023-02-18T01:53:00.661Z,1.1
2023-02-18T01:54:00.655Z,1.1
2023-02-18T01:55:00.668Z,1.1
2023-02-18T01:56:00.676Z,1.1
2023-02-18T01:57:00.712Z,1.1
2023-02-18T01:58:00.683Z,1.1
2023-02-18T01:59:00.670Z,1.1
2023-02-18T02:00:00.719Z,1.1
2023-02-18T02:01:00.833Z,1.1
2023-02-18T02:02:00.725Z,1.1
2023-02-18T02:03:00.682Z,1.1
2023-02-18T02:04:00.673Z,1.1
2023-02-18T02:05:00.673Z,1.1
2023-02-18T02:06:00.700Z,1.1
2023-02-18T02:07:00.694Z,1.1
2023-02-18T02:08:00.675Z,1.1
2023-02-18T02:09:00.684Z,1.1
2023-02-18T02:10:00.703Z,1.1
2023-02-18T02:11:00.695Z,1.1
2023-02-18T02:12:00.679Z,1.1
2023-02-18T02:13:00.693Z,1.1
2023-02-18T02:14:00.679Z,1.1
2023-02-18T02:15:00.684Z,1.1
2023-02-18T02:16:00.738Z,1.1
2023-02-18T02:17:00.686Z,1.1
2023-02-18T02:18:00.702Z,1.1
2023-02-18T02:19:00.690Z,1.1
2023-02-18T02:20:00.713Z,1.1
2023-02-18T02:22:00.704Z,1.1
2023-02-18T02:23:00.708Z,1.1
2023-02-18T02:24:00.691Z,1.1
2023-02-18T02:25:00.729Z,1.1
2023-02-18T02:26:00.692Z,1.1
2023-02-18T02:27:00.716Z,1.1
2023-02-18T02:28:00.968Z,1.1
2023-02-18T02:29:00.720Z,1.1
2023-02-18T02:30:00.783Z,1.1
2023-02-18T02:31:00.759Z,1.1
2023-02-18T02:32:00.766Z,1.1
2023-02-18T02:33:00.706Z,1.1
2023-02-18T02:34:00.750Z,1.1
2023-02-18T02:35:00.733Z,1.1
2023-02-18T02:36:00.712Z,1.1
2023-02-18T02:37:00.728Z,1.1
2023-02-18T02:38:00.718Z,1.1
2023-02-18T02:39:00.717Z,1.1
2023-02-18T02:40:00.759Z,1.1
2023-02-18T02:41:00.709Z,1.1
2023-02-18T02:42:00.755Z,1.1
2023-02-18T02:43:00.734Z,1.1
2023-02-18T02:44:00.734Z,1.1
2023-02-18T02:45:00.731Z,1.1
2023-02-18T02:46:00.753Z,1.1
2023-02-18T02:47:00.749Z,1.1
2023-02-18T02:48:00.731Z,1.1
2023-02-18T02:49:00.727Z,1.1
2023-02-18T02:50:00.759Z,1.1
2023-02-18T02:51:00.756Z,1.1
2023-02-18T02:52:00.739Z,1.1
2023-02-18T02:53:00.726Z,1.1
2023-02-18T02:54:00.735Z,1.1
2023-02-18T02:55:01.575Z,1.1
2023-02-18T02:56:00.749Z,1.1
2023-02-18T02:57:00.759Z,1.1
2023-02-18T02:58:00.752Z,1.1
2023-02-18T02:59:00.743Z,1.1
2023-02-18T03:00:01.117Z,1.1
2023-02-18T03:01:01.216Z,1.1
2023-02-18T03:02:01.131Z,1.1
2023-02-18T03:03:01.181Z,1.1
2023-02-18T03:04:01.122Z,1.1
2023-02-18T03:05:01.149Z,1.1
2023-02-18T03:06:01.139Z,1.1
2023-02-18T03:07:01.139Z,1.1
2023-02-18T03:08:01.128Z,1.1
2023-02-18T03:09:01.128Z,1.1
2023-02-18T03:10:01.293Z,1.1
2023-02-18T03:11:01.161Z,1.1
2023-02-18T03:12:01.218Z,1.1
2023-02-18T03:13:01.221Z,1.1
2023-02-18T03:14:01.208Z,1.1
2023-02-18T03:15:01.299Z,1.1
2023-02-18T03:16:01.268Z,1.1
2023-02-18T03:17:01.217Z,1.1
2023-02-18T03:18:01.213Z,1.1
2023-02-18T03:19:01.271Z,1.1
2023-02-18T03:20:01.275Z,1.1
2023-02-18T03:21:01.305Z,1.1
2023-02-18T03:22:01.324Z,1.1
2023-02-18T03:23:01.320Z,1.1
2023-02-18T03:24:01.256Z,1.1
2023-02-18T03:25:01.280Z,1.1
2023-02-18T03:26:01.257Z,1.1
2023-02-18T03:27:01.324Z,1.1
2023-02-18T03:28:01.318Z,1.1
2023-02-18T03:29:01.311Z,1.1
2023-02-18T03:30:01.340Z,1.1
2023-02-18T03:31:01.339Z,1.1
2023-02-18T03:32:01.340Z,1.1
2023-02-18T03:33:01.207Z,1.1
2023-02-18T03:34:01.243Z,1.1
2023-02-18T03:35:01.214Z,1.1
2023-02-18T03:36:01.158Z,1.1
2023-02-18T03:37:01.206Z,1.1
2023-02-18T03:38:01.286Z,1.1
2023-02-18T03:39:01.162Z,1.1
2023-02-18T03:40:01.199Z,1.1
2023-02-18T03:41:01.179Z,1.1
2023-02-18T03:42:01.246Z,1.1
2023-02-18T03:43:01.184Z,1.1
2023-02-18T03:44:01.167Z,1.1
2023-02-18T03:45:01.160Z,1.1
2023-02-18T03:46:01.267Z,1.1
2023-02-18T03:47:01.175Z,1.1
2023-02-18T03:48:01.186Z,1.1
2023-02-18T03:49:01.162Z,1.1
2023-02-18T03:50:01.168Z,1.1
2023-02-18T03:51:01.167Z,1.1
2023-02-18T03:52:01.181Z,1.1
2023-02-18T03:53:01.184Z,1.1
2023-02-18T03:54:01.165Z,1.1
2023-02-18T03:55:01.166Z,1.1
2023-02-18T03:56:01.184Z,1.1
2023-02-18T03:57:01.176Z,1.1
2023-02-18T03:58:01.185Z,1.1
2023-02-18T03:59:01.175Z,1.1
2023-02-18T04:00:01.198Z,1.1
2023-02-18T04:01:01.199Z,1.1
2023-02-18T04:02:01.165Z,1.1
2023-02-18T04:03:01.191Z,1.1
2023-02-18T04:04:01.226Z,1.1
2023-02-18T04:05:01.172Z,1.1
2023-02-18T04:06:01.199Z,1.1
2023-02-18T04:07:01.193Z,1.1
2023-02-18T04:08:01.203Z,1.1
2023-02-18T04:09:01.196Z,1.1
2023-02-18T04:10:01.207Z,1.1
2023-02-18T04:11:01.200Z,1.1
2023-02-18T04:12:01.198Z,1.1
2023-02-18T04:13:01.183Z,1.1
2023-02-18T04:14:01.180Z,1.1
2023-02-18T04:15:01.202Z,1.1
2023-02-18T04:16:01.200Z,1.1
2023-02-18T04:17:01.179Z,1.1
2023-02-18T04:18:01.200Z,1.1
2023-02-18T04:19:01.181Z,1.1
2023-02-18T04:20:01.209Z,1.1
2023-02-18T04:21:01.200Z,1.1
2023-02-18T04:22:01.203Z,1.1
2023-02-18T04:23:01.194Z,1.1
2023-02-18T04:24:01.202Z,1.1
2023-02-18T04:25:01.218Z,1.1
2023-02-18T04:26:01.200Z,1.1
2023-02-18T04:27:01.218Z,1.1
2023-02-18T04:28:01.194Z,1.1
2023-02-18T04:29:01.198Z,1.1
2023-02-18T04:30:01.290Z,1.1
2023-02-18T04:31:01.215Z,1.1
2023-02-18T04:32:01.244Z,1.1
2023-02-18T04:33:01.217Z,1.1
2023-02-18T04:34:01.199Z,1.1
2023-02-18T04:35:01.228Z,1.1
2023-02-18T04:36:01.206Z,1.1
2023-02-18T04:37:01.230Z,1.1
2023-02-18T04:38:01.209Z,1.1
2023-02-18T04:39:01.211Z,1.1
2023-02-18T04:40:01.258Z,1.1
2023-02-18T04:41:01.209Z,1.1
2023-02-18T04:42:01.205Z,1.1
2023-02-18T04:43:01.210Z,1.1
2023-02-18T04:44:01.224Z,1.1
2023-02-18T04:45:01.233Z,1.1
2023-02-18T04:46:01.290Z,1.1
2023-02-18T04:47:01.210Z,1.1
2023-02-18T04:48:01.254Z,1.1
2023-02-18T04:49:01.225Z,1.1
2023-02-18T04:50:01.278Z,1.1
2023-02-18T04:51:01.224Z,1.1
2023-02-18T04:52:01.231Z,1.1
2023-02-18T04:53:01.229Z,1.1
2023-02-18T04:54:01.222Z,1.1
2023-02-18T04:55:01.242Z,1.1
2023-02-18T04:56:01.248Z,1.1
2023-02-18T04:57:01.242Z,1.1
2023-02-18T04:58:01.225Z,1.1
2023-02-18T04:59:00.548Z,1.1
2023-02-18T05:00:00.552Z,1.1
2023-02-18T05:01:00.615Z,1.1
2023-02-18T05:02:00.553Z,1.1
2023-02-18T05:03:00.581Z,1.1
2023-02-18T05:04:00.632Z,1.1
2023-02-18T05:05:00.568Z,1.1
2023-02-18T05:06:00.585Z,1.1
2023-02-18T05:07:00.579Z,1.1
2023-02-18T05:08:00.563Z,1.1
2023-02-18T05:09:00.570Z,1.1
2023-02-18T05:10:00.575Z,1.1
2023-02-18T05:11:00.581Z,1.1
2023-02-18T05:12:00.611Z,1.1
2023-02-18T05:13:00.585Z,1.1
2023-02-18T05:14:00.576Z,1.1
2023-02-18T05:15:00.597Z,1.1
2023-02-18T05:16:00.675Z,1.1
2023-02-18T05:17:00.580Z,1.1
2023-02-18T05:18:00.583Z,1.1
2023-02-18T05:19:00.591Z,1.1
2023-02-18T05:20:00.615Z,1.1
2023-02-18T05:21:00.610Z,1.1
2023-02-18T05:22:00.577Z,1.1
2023-02-18T05:23:00.580Z,1.1
2023-02-18T05:24:00.586Z,1.1
2023-02-18T05:25:00.613Z,1.1
2023-02-18T05:26:00.626Z,1.1
2023-02-18T05:27:00.598Z,1.1
2023-02-18T05:28:00.609Z,1.1
2023-02-18T05:29:00.585Z,1.1
2023-02-18T05:30:00.677Z,1.1
2023-02-18T05:31:00.741Z,1.1
2023-02-18T05:32:00.687Z,1.1
2023-02-18T05:33:00.588Z,1.1
2023-02-18T05:34:00.603Z,1.1
2023-02-18T05:35:00.611Z,1.1
2023-02-18T05:36:00.611Z,1.1
2023-02-18T05:37:00.612Z,1.1
2023-02-18T05:38:00.603Z,1.1
2023-02-18T05:39:00.602Z,1.1
2023-02-18T05:40:00.634Z,1.1
2023-02-18T05:41:00.611Z,1.1
2023-02-18T05:42:00.614Z,1.1
2023-02-18T05:43:00.621Z,1.1
2023-02-18T05:44:00.619Z,1.1
2023-02-18T05:45:00.607Z,1.1
2023-02-18T05:46:00.669Z,1.1
2023-02-18T05:47:00.642Z,1.1
2023-02-18T05:48:00.624Z,1.1
2023-02-18T05:49:00.604Z,1.1
2023-02-18T05:50:00.612Z,1.1
2023-02-18T05:51:00.628Z,1.1
2023-02-18T05:52:00.611Z,1.1
2023-02-18T05:53:00.623Z,1.1
2023-02-18T05:54:00.626Z,1.1
2023-02-18T05:55:00.610Z,1.1
2023-02-18T05:56:00.633Z,1.1
2023-02-18T05:57:00.611Z,1.1
2023-02-18T05:58:00.630Z,1.1
2023-02-18T05:59:00.632Z,1.1
2023-02-18T06:00:00.646Z,1.1
2023-02-18T06:01:00.634Z,1.1
2023-02-18T06:02:00.628Z,1.1
2023-02-18T06:03:00.676Z,1.1
2023-02-18T06:04:00.628Z,1.1
2023-02-18T06:05:00.648Z,1.3
2023-02-18T06:06:00.714Z,1.5
2023-02-18T06:07:00.642Z,1.8
2023-02-18T06:08:00.627Z,2.1
2023-02-18T06:09:00.629Z,2.8
2023-02-18T06:10:00.655Z,3.4
2023-02-18T06:11:00.662Z,4
2023-02-18T06:12:00.627Z,4.6
2023-02-18T06:13:00.647Z,5.9
2023-02-18T06:14:00.654Z,7.3
2023-02-18T06:15:00.631Z,8.7
2023-02-18T06:16:00.692Z,10.3
2023-02-18T06:17:00.638Z,11.7
2023-02-18T06:18:00.641Z,13.7
2023-02-18T06:19:00.633Z,16.6
2023-02-18T06:20:00.665Z,18.5
2023-02-18T06:21:00.671Z,21.1
2023-02-18T06:22:00.635Z,24.4
2023-02-18T06:23:00.641Z,27.1
2023-02-18T06:24:00.642Z,30.6
2023-02-18T06:25:00.660Z,34.9
2023-02-18T06:26:00.665Z,39.3
2023-02-18T06:27:00.684Z,44.3
2023-02-18T06:28:00.641Z,48.7
2023-02-18T06:29:00.642Z,54.3
2023-02-18T06:30:01.061Z,59.7
2023-02-18T06:31:00.764Z,68.1
2023-02-18T06:32:00.818Z,75.9
2023-02-18T06:33:00.653Z,85.5
2023-02-18T06:34:00.691Z,96.4
2023-02-18T06:35:00.721Z,104.8
2023-02-18T06:36:00.717Z,116.7
2023-02-18T06:37:01.445Z,126.9
2023-02-18T06:38:00.664Z,139.6
2023-02-18T06:39:00.649Z,157.4
2023-02-18T06:40:00.800Z,167.1
2023-02-18T06:41:00.674Z,179.5
2023-02-18T06:42:00.766Z,195.2
2023-02-18T06:43:00.721Z,207.2
2023-02-18T06:44:00.761Z,217.3
2023-02-18T06:45:00.738Z,225.3
2023-02-18T06:46:00.707Z,269.5
2023-02-18T06:47:00.752Z,282.7
2023-02-18T06:48:00.727Z,276.1
2023-02-18T06:49:00.768Z,300.2
2023-02-18T06:50:00.810Z,300.2
2023-02-18T06:51:00.832Z,311.1
2023-02-18T06:52:00.814Z,296.6
2023-02-18T06:53:00.770Z,314.9
2023-02-18T06:54:00.828Z,334.3
2023-02-18T06:55:00.811Z,359.1
2023-02-18T06:56:00.784Z,350.6
2023-02-18T06:57:00.900Z,395.2
2023-02-18T06:58:00.812Z,376.7
2023-02-18T06:59:00.830Z,372.2
2023-02-18T07:00:00.839Z,414.5
2023-02-18T07:01:00.892Z,419.6
2023-02-18T07:02:00.803Z,424.6
2023-02-18T07:03:00.820Z,429.7
2023-02-18T07:04:00.901Z,424.6
2023-02-18T07:05:00.680Z,467.2
2023-02-18T07:06:00.845Z,520.3
2023-02-18T07:07:00.783Z,508
2023-02-18T07:08:00.804Z,532.9
2023-02-18T07:09:00.886Z,484.3
2023-02-18T07:10:00.769Z,514.1
2023-02-18T07:11:00.953Z,545.8
2023-02-18T07:12:00.698Z,600.6
2023-02-18T07:13:00.811Z,622.5
2023-02-18T07:14:00.711Z,552.4
2023-02-18T07:15:00.746Z,579.4
2023-02-18T07:16:00.735Z,607.8
2023-02-18T07:17:00.691Z,685.1
2023-02-18T07:18:00.716Z,727.2
2023-02-18T07:19:00.689Z,744.8
2023-02-18T07:20:00.749Z,736
2023-02-18T07:21:00.708Z,819.6
2023-02-18T07:22:00.697Z,781.4
2023-02-18T07:23:00.720Z,880.6
2023-02-18T07:24:00.726Z,957.5
2023-02-18T07:25:00.700Z,912.8
2023-02-18T07:26:00.716Z,901.9
2023-02-18T07:27:00.716Z,957.5
2023-02-18T07:28:00.704Z,859.8
2023-02-18T07:29:00.722Z,901.9
2023-02-18T07:30:00.870Z,1041.1
2023-02-18T07:31:00.771Z,1159.4
2023-02-18T07:32:00.739Z,1053.6
2023-02-18T07:33:03.016Z,957.5
2023-02-18T07:34:00.720Z,957.5
2023-02-18T07:35:00.730Z,992.5
2023-02-18T07:36:00.704Z,1028.7
2023-02-18T07:37:00.737Z,1053.6
2023-02-18T07:38:00.741Z,1145.6
2023-02-18T07:39:00.731Z,1105.3
2023-02-18T07:40:00.945Z,1105.3
2023-02-18T07:41:00.716Z,1245.7
2023-02-18T07:42:00.739Z,1275.8
2023-02-18T07:43:00.723Z,1230.8
2023-02-18T07:44:00.765Z,1275.8
2023-02-18T07:45:00.742Z,1490.4
2023-02-18T07:46:00.744Z,1201.7
2023-02-18T07:47:00.742Z,1105.3
2023-02-18T07:48:00.722Z,1132
2023-02-18T07:49:00.723Z,1053.6
2023-02-18T07:50:00.752Z,1354.4
2023-02-18T07:51:00.749Z,1016.5
2023-02-18T07:52:00.745Z,1159.4
2023-02-18T07:53:00.727Z,1370.7
2023-02-18T07:54:00.727Z,1526.4
2023-02-18T07:55:00.759Z,1826.4
2023-02-18T07:56:00.728Z,1640
2023-02-18T07:57:00.754Z,1544.8
2023-02-18T07:58:00.738Z,1848.4
2023-02-18T07:59:00.729Z,1679.7
2023-02-18T08:00:00.789Z,1826.4
2023-02-18T08:01:00.732Z,1826.4
2023-02-18T08:02:00.831Z,1870.6
2023-02-18T08:03:00.736Z,1659.7
2023-02-18T08:04:00.814Z,1893.1
2023-02-18T08:05:00.756Z,1720.4
2023-02-18T08:06:00.761Z,2159.2
2023-02-18T08:07:00.746Z,2265.1
2023-02-18T08:08:00.740Z,2009.8
2023-02-18T08:09:00.778Z,1848.4
2023-02-18T08:10:00.793Z,1679.7
2023-02-18T08:11:02.709Z,2009.8
2023-02-18T08:12:00.775Z,2034
2023-02-18T08:13:00.745Z,2009.8
2023-02-18T08:14:00.776Z,2185.2
2023-02-18T08:15:00.765Z,2265.1
2023-02-18T08:16:00.753Z,2211.5
2023-02-18T08:17:00.758Z,2034
2023-02-18T08:18:00.753Z,1870.6
2023-02-18T08:19:00.770Z,1762
2023-02-18T08:20:00.805Z,1699.9
2023-02-18T08:21:00.780Z,1870.6
2023-02-18T08:22:00.767Z,1848.4
2023-02-18T08:23:00.763Z,2185.2
2023-02-18T08:24:00.779Z,2159.2
2023-02-18T08:25:00.791Z,2083.2
2023-02-18T08:26:00.761Z,1699.9
2023-02-18T08:27:01.687Z,1893.1
2023-02-18T08:28:00.779Z,1848.4
2023-02-18T08:29:00.797Z,1659.7
2023-02-18T08:30:00.882Z,1741
2023-02-18T08:31:00.857Z,1659.7
2023-02-18T08:32:00.859Z,1783.3
2023-02-18T08:33:00.777Z,1826.4
2023-02-18T08:34:00.806Z,1544.8
2023-02-18T08:35:00.785Z,1260.7
2023-02-18T08:36:00.797Z,1420.8
2023-02-18T08:37:00.798Z,1354.4
2023-02-18T08:38:00.787Z,1455.2
2023-02-18T08:39:00.806Z,1526.4
2023-02-18T08:40:00.795Z,1544.8
2023-02-18T08:41:00.802Z,1370.7
2023-02-18T08:42:00.809Z,1370.7
2023-02-18T08:43:00.783Z,1620.5
2023-02-18T08:44:00.807Z,1640
2023-02-18T08:45:00.814Z,1870.6
2023-02-18T08:46:00.873Z,1962.2
2023-02-18T08:47:00.783Z,1741
2023-02-18T08:48:17.624Z,1848.4
2023-02-18T08:49:00.812Z,1762
2023-02-18T08:50:00.813Z,1762
2023-02-18T08:51:00.807Z,1720.4
2023-02-18T08:52:00.801Z,1544.8
2023-02-18T08:53:00.806Z,1526.4
2023-02-18T08:54:00.820Z,1472.7
2023-02-18T08:55:00.798Z,1508.3
2023-02-18T08:56:00.800Z,1804.7
2023-02-18T08:57:00.800Z,1848.4
2023-02-18T08:58:00.798Z,1870.6
2023-02-18T08:59:00.826Z,1962.2
2023-02-18T09:00:00.851Z,1893.1
2023-02-18T09:01:00.834Z,1870.6
2023-02-18T09:02:00.806Z,1915.9
2023-02-18T09:03:00.805Z,1985.8
2023-02-18T09:04:00.844Z,1826.4
2023-02-18T09:05:00.807Z,1762
2023-02-18T09:06:00.831Z,1915.9
2023-02-18T09:07:00.831Z,2034
2023-02-18T09:08:00.816Z,1870.6
2023-02-18T09:09:00.825Z,1870.6
2023-02-18T09:10:00.829Z,1848.4
2023-02-18T09:11:00.808Z,1601.3
2023-02-18T09:12:00.820Z,1659.7
2023-02-18T09:13:00.818Z,1870.6
2023-02-18T09:14:00.839Z,1783.3
2023-02-18T09:15:00.842Z,1741
2023-02-18T09:16:00.853Z,2009.8
2023-02-18T09:17:00.821Z,1915.9
2023-02-18T09:18:00.820Z,2108.2
2023-02-18T09:19:00.854Z,2319.9
2023-02-18T09:20:00.851Z,2376
2023-02-18T09:21:00.830Z,2376
2023-02-18T09:22:00.946Z,2376
2023-02-18T09:23:00.871Z,2522.4
2023-02-18T09:24:00.838Z,2809
2023-02-18T09:25:00.842Z,2946.7
2023-02-18T09:26:00.815Z,2809
2023-02-18T09:27:00.822Z,3128.2
2023-02-18T09:28:00.820Z,2946.7
2023-02-18T09:29:00.856Z,3091.1
2023-02-18T09:30:00.874Z,3054.3
2023-02-18T09:31:00.861Z,2982.2
2023-02-18T09:32:00.868Z,3321.1
2023-02-18T09:33:00.835Z,3654.5
2023-02-18T09:34:00.866Z,3788
2023-02-18T09:35:00.844Z,3483.7
2023-02-18T09:36:00.829Z,3442.3
2023-02-18T09:37:00.833Z,3165.8
2023-02-18T09:38:00.830Z,2982.2
2023-02-18T09:39:00.850Z,3018
2023-02-18T09:40:00.847Z,3054.3
2023-02-18T09:41:00.839Z,2982.2
2023-02-18T09:42:00.873Z,2677.9
2023-02-18T09:43:00.849Z,2462.8
2023-02-18T09:44:00.893Z,2677.9
2023-02-18T09:45:00.856Z,2552.8
2023-02-18T09:46:00.875Z,2911.7
2023-02-18T09:47:01.466Z,3091.1
2023-02-18T09:48:00.860Z,3165.8
2023-02-18T09:49:00.865Z,2842.8
2023-02-18T09:50:00.865Z,2809
2023-02-18T09:51:01.201Z,3018
2023-02-18T09:52:00.848Z,3091.1
2023-02-18T09:53:00.849Z,2911.7
2023-02-18T09:54:00.891Z,3054.3
2023-02-18T09:55:00.885Z,3442.3
2023-02-18T09:56:00.862Z,3568
2023-02-18T09:57:00.855Z,3281.6
2023-02-18T09:58:00.876Z,3054.3
2023-02-18T09:59:00.881Z,3165.8
2023-02-18T10:00:00.919Z,3281.6
2023-02-18T10:01:00.869Z,3611.1
2023-02-18T10:02:02.345Z,3401.4
2023-02-18T10:03:00.875Z,3091.1
2023-02-18T10:04:00.882Z,2877.1
2023-02-18T10:05:00.904Z,2742.6
2023-02-18T10:06:00.875Z,2982.2
2023-02-18T10:07:00.900Z,3018
2023-02-18T10:08:00.867Z,3054.3
2023-02-18T10:09:00.892Z,3204.1
2023-02-18T10:10:00.898Z,3321.1
2023-02-18T10:11:00.873Z,3018
2023-02-18T10:12:00.892Z,2911.7
2023-02-18T10:13:00.895Z,3018
2023-02-18T10:14:00.876Z,2982.2
2023-02-18T10:15:00.957Z,3242.6
2023-02-18T10:16:00.952Z,3242.6
2023-02-18T10:17:00.904Z,3611.1
2023-02-18T10:18:00.905Z,3833.5
2023-02-18T10:19:00.906Z,3742.9
2023-02-18T10:20:02.270Z,4118.8
2023-02-18T10:21:00.908Z,4218.4
2023-02-18T10:22:00.911Z,4168.3
2023-02-18T10:23:00.888Z,3973.5
2023-02-18T10:24:00.904Z,3879.6
2023-02-18T10:25:00.897Z,4269.1
2023-02-18T10:26:00.889Z,4372.4
2023-02-18T10:27:00.904Z,4425
2023-02-18T10:28:00.913Z,4642
2023-02-18T10:29:00.906Z,4168.3
2023-02-18T10:30:00.966Z,3654.5
2023-02-18T10:31:01.014Z,4372.4
2023-02-18T10:32:00.975Z,4697.8
2023-02-18T10:33:00.929Z,4425
2023-02-18T10:34:00.925Z,4269.1
2023-02-18T10:35:00.900Z,4425
2023-02-18T10:36:00.897Z,4425
2023-02-18T10:37:00.920Z,4425
2023-02-18T10:38:00.922Z,4869.3
2023-02-18T10:39:00.917Z,4586.8
2023-02-18T10:40:00.939Z,4697.8
2023-02-18T10:41:00.934Z,4425
2023-02-18T10:42:00.944Z,4586.8
2023-02-18T10:43:00.905Z,4372.4
2023-02-18T10:44:00.918Z,4320.5
2023-02-18T10:45:00.908Z,4987.1
2023-02-18T10:46:00.912Z,4642
2023-02-18T10:47:00.932Z,4425
2023-02-18T10:48:00.941Z,4425
2023-02-18T10:49:00.951Z,4478.2
2023-02-18T10:50:00.947Z,4642
2023-02-18T10:51:00.920Z,4425
2023-02-18T10:52:00.941Z,4372.4
2023-02-18T10:53:00.916Z,4927.9
2023-02-18T10:54:00.934Z,5047.1
2023-02-18T10:55:01.041Z,5047.1
2023-02-18T10:56:01.008Z,4987.1
2023-02-18T10:57:00.942Z,5107.8
2023-02-18T10:58:00.916Z,5231.6
2023-02-18T10:59:00.897Z,4987.1
2023-02-18T11:00:00.973Z,4927.9
2023-02-18T11:01:00.846Z,5047.1
2023-02-18T11:02:00.946Z,5231.6
2023-02-18T11:03:00.811Z,5107.8
2023-02-18T11:04:00.764Z,5231.6
2023-02-18T11:05:00.938Z,5107.8
2023-02-18T11:06:00.708Z,5107.8
2023-02-18T11:07:00.692Z,5169.5
2023-02-18T11:08:00.655Z,4927.9
2023-02-18T11:09:00.670Z,4927.9
2023-02-18T11:10:00.648Z,4811.5
2023-02-18T11:11:00.562Z,4811.5
2023-02-18T11:12:08.326Z,4927.9
2023-02-18T11:13:00.516Z,5231.6
2023-02-18T11:14:00.547Z,5294.6
2023-02-18T11:15:00.540Z,5231.6
2023-02-18T11:16:00.607Z,5358.2
2023-02-18T11:17:00.514Z,5358.2
2023-02-18T11:18:00.564Z,5358.2
2023-02-18T11:19:00.507Z,5231.6
2023-02-18T11:20:00.558Z,5169.5
2023-02-18T11:21:00.532Z,5231.6
2023-02-18T11:22:00.515Z,5294.6
2023-02-18T11:23:00.519Z,5169.5
2023-02-18T11:24:00.537Z,5231.6
2023-02-18T11:25:00.510Z,5231.6
2023-02-18T11:26:00.565Z,5294.6
2023-02-18T11:27:00.547Z,5231.6
2023-02-18T11:28:00.525Z,5107.8
2023-02-18T11:29:00.516Z,5107.8
2023-02-18T11:30:00.593Z,4987.1
2023-02-18T11:31:00.610Z,4987.1
2023-02-18T11:32:00.627Z,4869.3
2023-02-18T11:33:00.549Z,4811.5
2023-02-18T11:34:00.525Z,4642
2023-02-18T11:35:00.534Z,4586.8
2023-02-18T11:36:00.577Z,4642
2023-02-18T11:37:00.529Z,4372.4
2023-02-18T11:38:00.531Z,4118.8
2023-02-18T11:39:00.528Z,3973.5
2023-02-18T11:40:00.547Z,3926.3
2023-02-18T11:41:00.554Z,3879.6
2023-02-18T11:42:00.547Z,3654.5
2023-02-18T11:43:00.532Z,3698.5
2023-02-18T11:44:00.549Z,3833.5
2023-02-18T11:45:00.555Z,3742.9
2023-02-18T11:46:00.559Z,3742.9
2023-02-18T11:47:00.622Z,3833.5
2023-02-18T11:48:00.558Z,3833.5
2023-02-18T11:49:00.557Z,3742.9
2023-02-18T11:50:00.566Z,3833.5
2023-02-18T11:51:00.544Z,3742.9
2023-02-18T11:52:00.545Z,3973.5
2023-02-18T11:53:00.547Z,4021.3
2023-02-18T11:54:00.558Z,3973.5
2023-02-18T11:55:00.556Z,4118.8
2023-02-18T11:56:00.545Z,4168.3
2023-02-18T11:57:00.547Z,4118.8
2023-02-18T11:58:00.558Z,4218.4
2023-02-18T11:59:00.574Z,4218.4
2023-02-18T12:00:00.570Z,4269.1
2023-02-18T12:01:00.554Z,4320.5
2023-02-18T12:02:00.592Z,4320.5
2023-02-18T12:03:00.572Z,4425
2023-02-18T12:04:00.578Z,4586.8
2023-02-18T12:05:00.623Z,4642
2023-02-18T12:06:00.576Z,4642
2023-02-18T12:07:00.583Z,4697.8
2023-02-18T12:08:00.578Z,4869.3
2023-02-18T12:09:00.569Z,4869.3
2023-02-18T12:10:00.587Z,4869.3
2023-02-18T12:11:00.572Z,4869.3
2023-02-18T12:12:00.580Z,4869.3
2023-02-18T12:13:00.573Z,4869.3
2023-02-18T12:14:00.588Z,4927.9
2023-02-18T12:15:00.594Z,5047.1
2023-02-18T12:16:00.570Z,5047.1
2023-02-18T12:17:00.589Z,5107.8
2023-02-18T12:18:00.589Z,5169.5
2023-02-18T12:19:00.577Z,5169.5
2023-02-18T12:20:00.595Z,5231.6
2023-02-18T12:21:00.604Z,5294.6
2023-02-18T12:22:00.583Z,5294.6
2023-02-18T12:23:00.608Z,5294.6
2023-02-18T12:24:00.599Z,5422.7
2023-02-18T12:25:01.229Z,5487.9
2023-02-18T12:26:00.603Z,5487.9
2023-02-18T12:27:00.587Z,5553.9
2023-02-18T12:28:00.591Z,5620.7
2023-02-18T12:29:00.595Z,5487.9
2023-02-18T12:30:00.690Z,5358.2
2023-02-18T12:31:00.709Z,5487.9
2023-02-18T12:32:00.691Z,5620.7
2023-02-18T12:33:00.606Z,5756.7
2023-02-18T12:34:00.597Z,5896.2
2023-02-18T12:35:00.598Z,5756.7
2023-02-18T12:36:00.638Z,6038.9
2023-02-18T12:37:00.611Z,5967.1
2023-02-18T12:38:00.590Z,6185
2023-02-18T12:39:00.595Z,6111.5
2023-02-18T12:40:00.606Z,6038.9
2023-02-18T12:41:00.614Z,6038.9
2023-02-18T12:42:00.618Z,6038.9
2023-02-18T12:43:00.596Z,5967.1
2023-02-18T12:44:00.610Z,5826.2
2023-02-18T12:45:00.625Z,5620.7
2023-02-18T12:46:00.719Z,5553.9
2023-02-18T12:47:00.627Z,5487.9
2023-02-18T12:48:00.605Z,5358.2
2023-02-18T12:49:00.601Z,5358.2
2023-02-18T12:50:00.629Z,5294.6
2023-02-18T12:51:00.603Z,5231.6
2023-02-18T12:52:00.629Z,5107.8
2023-02-18T12:53:00.621Z,5047.1
2023-02-18T12:54:00.626Z,4987.1
2023-02-18T12:55:00.642Z,4869.3
2023-02-18T12:56:00.690Z,4869.3
2023-02-18T12:57:00.698Z,4869.3
2023-02-18T12:58:00.623Z,4869.3
2023-02-18T12:59:00.801Z,4811.5
2023-02-18T13:00:00.661Z,4811.5
2023-02-18T13:01:01.612Z,4754.3
2023-02-18T13:02:00.688Z,4754.3
2023-02-18T13:03:00.810Z,4754.3
2023-02-18T13:04:00.713Z,4754.3
2023-02-18T13:05:00.807Z,4869.3
2023-02-18T13:06:00.745Z,4811.5
2023-02-18T13:07:00.844Z,4811.5
2023-02-18T13:08:00.760Z,4869.3
2023-02-18T13:09:01.085Z,4869.3
2023-02-18T13:10:01.012Z,4811.5